sensor_id;sensor_type;location;lat;lon;timestamp;P1;durP1;ratioP1;P2;durP2;ratioP2
21188;SDS011;39071;52.420;20.896;2022-07-30T00:02:14;7.20;;;1.63;;
21188;SDS011;39071;52.420;20.896;2022-07-30T00:04:40;2.90;;;0.90;;
21188;SDS011;39071;52.420;20.896;2022-07-30T00:07:06;2.88;;;1.35;;
21188;SDS011;39071;52.420;20.896;2022-07-30T00:09:32;2.33;;;1.15;;
21188;SDS011;39071;52.420;20.896;2022-07-30T00:11:58;2.40;;;0.80;;
21188;SDS011;39071;52.420;20.896;2022-07-30T00:14:24;4.68;;;0.98;;
21188;SDS011;39071;52.420;20.896;2022-07-30T00:16:50;1.95;;;1.00;;
21188;SDS011;39071;52.420;20.896;2022-07-30T00:19:16;4.47;;;1.17;;
21188;SDS011;39071;52.420;20.896;2022-07-30T00:21:42;1.45;;;0.90;;
21188;SDS011;39071;52.420;20.896;2022-07-30T00:24:08;3.30;;;1.45;;
21188;SDS011;39071;52.420;20.896;2022-07-30T00:26:34;3.95;;;1.10;;
21188;SDS011;39071;52.420;20.896;2022-07-30T00:29:00;2.95;;;1.15;;
21188;SDS011;39071;52.420;20.896;2022-07-30T00:31:26;3.90;;;1.05;;
21188;SDS011;39071;52.420;20.896;2022-07-30T00:33:52;1.50;;;1.15;;
21188;SDS011;39071;52.420;20.896;2022-07-30T00:36:17;1.17;;;0.93;;
21188;SDS011;39071;52.420;20.896;2022-07-30T00:38:43;2.63;;;0.98;;
21188;SDS011;39071;52.420;20.896;2022-07-30T00:41:09;2.65;;;1.02;;
21188;SDS011;39071;52.420;20.896;2022-07-30T00:43:34;2.05;;;1.10;;
21188;SDS011;39071;52.420;20.896;2022-07-30T00:46:00;1.92;;;1.23;;
21188;SDS011;39071;52.420;20.896;2022-07-30T00:48:26;2.83;;;1.13;;
21188;SDS011;39071;52.420;20.896;2022-07-30T00:50:51;2.53;;;0.82;;
21188;SDS011;39071;52.420;20.896;2022-07-30T00:53:17;2.90;;;1.30;;
21188;SDS011;39071;52.420;20.896;2022-07-30T00:55:43;2.47;;;1.10;;
21188;SDS011;39071;52.420;20.896;2022-07-30T00:58:08;2.75;;;1.08;;
21188;SDS011;39071;52.420;20.896;2022-07-30T01:00:34;3.95;;;1.40;;
21188;SDS011;39071;52.420;20.896;2022-07-30T01:03:00;3.78;;;1.65;;
21188;SDS011;39071;52.420;20.896;2022-07-30T01:05:26;2.38;;;1.10;;
21188;SDS011;39071;52.420;20.896;2022-07-30T01:07:51;3.35;;;0.95;;
21188;SDS011;39071;52.420;20.896;2022-07-30T01:10:17;6.82;;;1.30;;
21188;SDS011;39071;52.420;20.896;2022-07-30T01:12:43;1.15;;;0.90;;
21188;SDS011;39071;52.420;20.896;2022-07-30T01:15:10;1.95;;;0.90;;
21188;SDS011;39071;52.420;20.896;2022-07-30T01:17:36;2.65;;;1.00;;
21188;SDS011;39071;52.420;20.896;2022-07-30T01:20:05;3.28;;;0.88;;
21188;SDS011;39071;52.420;20.896;2022-07-30T01:22:44;3.67;;;1.10;;
21188;SDS011;39071;52.420;20.896;2022-07-30T01:28:09;1.27;;;1.00;;
21188;SDS011;39071;52.420;20.896;2022-07-30T01:30:40;3.85;;;1.00;;
21188;SDS011;39071;52.420;20.896;2022-07-30T01:33:08;4.70;;;1.10;;
21188;SDS011;39071;52.420;20.896;2022-07-30T01:35:36;7.20;;;1.45;;
21188;SDS011;39071;52.420;20.896;2022-07-30T01:38:04;2.30;;;1.27;;
21188;SDS011;39071;52.420;20.896;2022-07-30T01:40:31;2.25;;;1.33;;
21188;SDS011;39071;52.420;20.896;2022-07-30T01:42:59;1.40;;;1.00;;
21188;SDS011;39071;52.420;20.896;2022-07-30T01:45:28;4.82;;;0.95;;
21188;SDS011;39071;52.420;20.896;2022-07-30T01:47:55;1.63;;;1.20;;
21188;SDS011;39071;52.420;20.896;2022-07-30T01:50:24;3.15;;;1.35;;
21188;SDS011;39071;52.420;20.896;2022-07-30T01:52:53;3.17;;;1.33;;
21188;SDS011;39071;52.420;20.896;2022-07-30T01:55:24;3.13;;;1.08;;
21188;SDS011;39071;52.420;20.896;2022-07-30T01:57:56;3.65;;;0.95;;
21188;SDS011;39071;52.420;20.896;2022-07-30T02:00:25;3.50;;;1.17;;
21188;SDS011;39071;52.420;20.896;2022-07-30T02:02:52;2.17;;;1.30;;
21188;SDS011;39071;52.420;20.896;2022-07-30T02:05:18;3.65;;;1.13;;
21188;SDS011;39071;52.420;20.896;2022-07-30T02:10:44;2.05;;;1.42;;
21188;SDS011;39071;52.420;20.896;2022-07-30T02:13:14;1.35;;;1.10;;
21188;SDS011;39071;52.420;20.896;2022-07-30T02:16:05;2.50;;;1.17;;
21188;SDS011;39071;52.420;20.896;2022-07-30T02:18:42;2.83;;;1.48;;
21188;SDS011;39071;52.420;20.896;2022-07-30T02:21:11;4.18;;;1.25;;
21188;SDS011;39071;52.420;20.896;2022-07-30T02:23:39;5.78;;;1.30;;
21188;SDS011;39071;52.420;20.896;2022-07-30T02:26:08;3.58;;;1.40;;
21188;SDS011;39071;52.420;20.896;2022-07-30T02:28:38;1.23;;;0.93;;
21188;SDS011;39071;52.420;20.896;2022-07-30T02:31:07;2.30;;;1.20;;
21188;SDS011;39071;52.420;20.896;2022-07-30T02:33:36;3.05;;;1.20;;
21188;SDS011;39071;52.420;20.896;2022-07-30T02:36:05;2.70;;;1.27;;
21188;SDS011;39071;52.420;20.896;2022-07-30T02:38:33;1.63;;;1.00;;
21188;SDS011;39071;52.420;20.896;2022-07-30T02:41:02;2.28;;;1.00;;
21188;SDS011;39071;52.420;20.896;2022-07-30T02:43:31;1.88;;;1.20;;
21188;SDS011;39071;52.420;20.896;2022-07-30T02:45:58;5.18;;;1.10;;
21188;SDS011;39071;52.420;20.896;2022-07-30T02:48:25;6.72;;;1.00;;
21188;SDS011;39071;52.420;20.896;2022-07-30T02:50:55;1.95;;;1.40;;
21188;SDS011;39071;52.420;20.896;2022-07-30T02:53:23;1.77;;;1.23;;
21188;SDS011;39071;52.420;20.896;2022-07-30T02:55:52;4.47;;;1.35;;
21188;SDS011;39071;52.420;20.896;2022-07-30T02:58:19;5.95;;;1.33;;
21188;SDS011;39071;52.420;20.896;2022-07-30T03:00:48;1.90;;;1.23;;
21188;SDS011;39071;52.420;20.896;2022-07-30T03:03:16;3.45;;;1.23;;
21188;SDS011;39071;52.420;20.896;2022-07-30T03:05:42;1.88;;;1.40;;
21188;SDS011;39071;52.420;20.896;2022-07-30T03:08:09;4.35;;;1.25;;
21188;SDS011;39071;52.420;20.896;2022-07-30T03:10:35;3.83;;;1.35;;
21188;SDS011;39071;52.420;20.896;2022-07-30T03:13:04;2.30;;;1.38;;
21188;SDS011;39071;52.420;20.896;2022-07-30T03:15:32;1.55;;;0.98;;
21188;SDS011;39071;52.420;20.896;2022-07-30T03:17:59;2.40;;;1.67;;
21188;SDS011;39071;52.420;20.896;2022-07-30T03:20:28;1.38;;;0.82;;
21188;SDS011;39071;52.420;20.896;2022-07-30T03:23:18;3.85;;;1.25;;
21188;SDS011;39071;52.420;20.896;2022-07-30T03:25:45;3.03;;;1.10;;
21188;SDS011;39071;52.420;20.896;2022-07-30T03:28:15;1.90;;;1.35;;
21188;SDS011;39071;52.420;20.896;2022-07-30T03:30:42;1.23;;;1.10;;
21188;SDS011;39071;52.420;20.896;2022-07-30T03:33:08;3.05;;;1.30;;
21188;SDS011;39071;52.420;20.896;2022-07-30T03:35:36;2.90;;;1.27;;
21188;SDS011;39071;52.420;20.896;2022-07-30T03:38:03;5.82;;;1.52;;
21188;SDS011;39071;52.420;20.896;2022-07-30T03:40:30;1.27;;;1.00;;
21188;SDS011;39071;52.420;20.896;2022-07-30T03:42:57;8.77;;;1.40;;
21188;SDS011;39071;52.420;20.896;2022-07-30T03:45:23;2.25;;;1.05;;
21188;SDS011;39071;52.420;20.896;2022-07-30T03:47:49;4.32;;;1.55;;
21188;SDS011;39071;52.420;20.896;2022-07-30T03:50:16;1.67;;;1.30;;
21188;SDS011;39071;52.420;20.896;2022-07-30T03:52:41;3.80;;;1.65;;
21188;SDS011;39071;52.420;20.896;2022-07-30T03:55:08;2.78;;;1.10;;
21188;SDS011;39071;52.420;20.896;2022-07-30T03:57:35;4.22;;;1.30;;
21188;SDS011;39071;52.420;20.896;2022-07-30T04:00:02;3.83;;;1.40;;
21188;SDS011;39071;52.420;20.896;2022-07-30T04:02:30;3.15;;;1.30;;
21188;SDS011;39071;52.420;20.896;2022-07-30T04:04:56;1.35;;;1.02;;
21188;SDS011;39071;52.420;20.896;2022-07-30T04:07:21;2.47;;;1.33;;
21188;SDS011;39071;52.420;20.896;2022-07-30T04:09:47;3.47;;;1.95;;
21188;SDS011;39071;52.420;20.896;2022-07-30T04:12:13;3.17;;;1.23;;
21188;SDS011;39071;52.420;20.896;2022-07-30T04:14:39;2.60;;;1.25;;
21188;SDS011;39071;52.420;20.896;2022-07-30T04:17:09;1.52;;;1.35;;
21188;SDS011;39071;52.420;20.896;2022-07-30T04:19:47;3.33;;;1.35;;
21188;SDS011;39071;52.420;20.896;2022-07-30T04:22:16;2.10;;;1.02;;
21188;SDS011;39071;52.420;20.896;2022-07-30T04:24:46;3.53;;;1.20;;
21188;SDS011;39071;52.420;20.896;2022-07-30T04:27:13;2.75;;;1.40;;
21188;SDS011;39071;52.420;20.896;2022-07-30T04:29:40;2.65;;;1.30;;
21188;SDS011;39071;52.420;20.896;2022-07-30T04:32:06;1.65;;;1.15;;
21188;SDS011;39071;52.420;20.896;2022-07-30T04:34:33;3.33;;;1.33;;
21188;SDS011;39071;52.420;20.896;2022-07-30T04:36:59;1.23;;;1.10;;
21188;SDS011;39071;52.420;20.896;2022-07-30T04:39:25;5.35;;;1.10;;
21188;SDS011;39071;52.420;20.896;2022-07-30T04:41:51;3.78;;;1.27;;
21188;SDS011;39071;52.420;20.896;2022-07-30T04:44:17;5.70;;;1.95;;
21188;SDS011;39071;52.420;20.896;2022-07-30T04:46:43;7.22;;;1.83;;
21188;SDS011;39071;52.420;20.896;2022-07-30T04:49:09;3.45;;;1.52;;
21188;SDS011;39071;52.420;20.896;2022-07-30T04:51:36;6.07;;;1.10;;
21188;SDS011;39071;52.420;20.896;2022-07-30T04:54:03;5.18;;;1.83;;
21188;SDS011;39071;52.420;20.896;2022-07-30T04:56:33;1.23;;;1.00;;
21188;SDS011;39071;52.420;20.896;2022-07-30T04:59:00;3.80;;;1.17;;
21188;SDS011;39071;52.420;20.896;2022-07-30T05:01:28;4.03;;;1.20;;
21188;SDS011;39071;52.420;20.896;2022-07-30T05:03:57;1.52;;;1.00;;
21188;SDS011;39071;52.420;20.896;2022-07-30T05:06:24;2.05;;;1.05;;
21188;SDS011;39071;52.420;20.896;2022-07-30T05:08:51;2.55;;;0.98;;
21188;SDS011;39071;52.420;20.896;2022-07-30T05:11:17;1.90;;;1.58;;
21188;SDS011;39071;52.420;20.896;2022-07-30T05:13:43;4.80;;;1.15;;
21188;SDS011;39071;52.420;20.896;2022-07-30T05:16:10;3.42;;;1.55;;
21188;SDS011;39071;52.420;20.896;2022-07-30T05:18:36;4.95;;;1.50;;
21188;SDS011;39071;52.420;20.896;2022-07-30T05:21:02;3.10;;;1.20;;
21188;SDS011;39071;52.420;20.896;2022-07-30T05:23:28;2.00;;;1.13;;
21188;SDS011;39071;52.420;20.896;2022-07-30T05:25:54;3.30;;;1.10;;
21188;SDS011;39071;52.420;20.896;2022-07-30T05:28:20;4.78;;;1.30;;
21188;SDS011;39071;52.420;20.896;2022-07-30T05:30:46;2.08;;;1.38;;
21188;SDS011;39071;52.420;20.896;2022-07-30T05:33:12;3.83;;;1.27;;
21188;SDS011;39071;52.420;20.896;2022-07-30T05:35:38;4.07;;;1.42;;
21188;SDS011;39071;52.420;20.896;2022-07-30T05:38:04;1.33;;;1.17;;
21188;SDS011;39071;52.420;20.896;2022-07-30T05:40:30;2.55;;;1.25;;
21188;SDS011;39071;52.420;20.896;2022-07-30T05:42:56;3.47;;;1.45;;
21188;SDS011;39071;52.420;20.896;2022-07-30T05:45:21;6.50;;;2.08;;
21188;SDS011;39071;52.420;20.896;2022-07-30T05:47:47;3.63;;;1.70;;
21188;SDS011;39071;52.420;20.896;2022-07-30T05:50:13;2.95;;;1.65;;
21188;SDS011;39071;52.420;20.896;2022-07-30T05:52:39;4.47;;;1.70;;
21188;SDS011;39071;52.420;20.896;2022-07-30T05:55:04;1.48;;;1.20;;
21188;SDS011;39071;52.420;20.896;2022-07-30T05:57:33;2.15;;;1.45;;
21188;SDS011;39071;52.420;20.896;2022-07-30T06:00:00;3.78;;;1.30;;
21188;SDS011;39071;52.420;20.896;2022-07-30T06:02:26;1.50;;;1.05;;
21188;SDS011;39071;52.420;20.896;2022-07-30T06:04:51;1.55;;;1.25;;
21188;SDS011;39071;52.420;20.896;2022-07-30T06:07:17;1.98;;;1.40;;
21188;SDS011;39071;52.420;20.896;2022-07-30T06:09:43;1.83;;;1.20;;
21188;SDS011;39071;52.420;20.896;2022-07-30T06:12:09;3.50;;;1.65;;
21188;SDS011;39071;52.420;20.896;2022-07-30T06:14:34;5.82;;;1.52;;
21188;SDS011;39071;52.420;20.896;2022-07-30T06:17:00;3.13;;;1.35;;
21188;SDS011;39071;52.420;20.896;2022-07-30T06:19:26;3.75;;;1.48;;
21188;SDS011;39071;52.420;20.896;2022-07-30T06:21:52;2.10;;;1.13;;
21188;SDS011;39071;52.420;20.896;2022-07-30T06:24:17;5.65;;;1.42;;
21188;SDS011;39071;52.420;20.896;2022-07-30T06:26:43;3.72;;;1.38;;
21188;SDS011;39071;52.420;20.896;2022-07-30T06:29:09;2.30;;;1.10;;
21188;SDS011;39071;52.420;20.896;2022-07-30T06:31:34;1.60;;;1.30;;
21188;SDS011;39071;52.420;20.896;2022-07-30T06:34:02;2.50;;;1.23;;
21188;SDS011;39071;52.420;20.896;2022-07-30T06:36:27;2.85;;;1.20;;
21188;SDS011;39071;52.420;20.896;2022-07-30T06:38:54;3.35;;;1.58;;
21188;SDS011;39071;52.420;20.896;2022-07-30T06:41:20;3.17;;;1.20;;
21188;SDS011;39071;52.420;20.896;2022-07-30T06:43:46;3.33;;;1.23;;
21188;SDS011;39071;52.420;20.896;2022-07-30T06:46:11;2.58;;;1.05;;
21188;SDS011;39071;52.420;20.896;2022-07-30T06:48:37;2.67;;;1.23;;
21188;SDS011;39071;52.420;20.896;2022-07-30T06:51:03;4.22;;;1.50;;
21188;SDS011;39071;52.420;20.896;2022-07-30T06:53:29;2.50;;;1.40;;
21188;SDS011;39071;52.420;20.896;2022-07-30T06:55:55;3.85;;;1.25;;
21188;SDS011;39071;52.420;20.896;2022-07-30T06:58:21;3.60;;;1.50;;
21188;SDS011;39071;52.420;20.896;2022-07-30T07:00:47;1.88;;;1.10;;
21188;SDS011;39071;52.420;20.896;2022-07-30T07:03:13;5.00;;;1.40;;
21188;SDS011;39071;52.420;20.896;2022-07-30T07:05:39;2.47;;;1.40;;
21188;SDS011;39071;52.420;20.896;2022-07-30T07:08:04;3.95;;;1.20;;
21188;SDS011;39071;52.420;20.896;2022-07-30T07:10:30;4.03;;;1.70;;
21188;SDS011;39071;52.420;20.896;2022-07-30T07:12:56;1.50;;;1.27;;
21188;SDS011;39071;52.420;20.896;2022-07-30T07:15:24;2.42;;;1.13;;
21188;SDS011;39071;52.420;20.896;2022-07-30T07:17:50;13.05;;;1.90;;
21188;SDS011;39071;52.420;20.896;2022-07-30T07:20:16;2.33;;;1.55;;
21188;SDS011;39071;52.420;20.896;2022-07-30T07:22:42;1.45;;;1.20;;
21188;SDS011;39071;52.420;20.896;2022-07-30T07:25:09;5.82;;;1.50;;
21188;SDS011;39071;52.420;20.896;2022-07-30T07:27:38;2.85;;;1.45;;
21188;SDS011;39071;52.420;20.896;2022-07-30T07:30:05;5.60;;;1.50;;
21188;SDS011;39071;52.420;20.896;2022-07-30T07:32:34;2.42;;;1.38;;
21188;SDS011;39071;52.420;20.896;2022-07-30T07:35:00;3.08;;;1.73;;
21188;SDS011;39071;52.420;20.896;2022-07-30T07:37:26;6.28;;;1.65;;
21188;SDS011;39071;52.420;20.896;2022-07-30T07:39:52;6.47;;;1.50;;
21188;SDS011;39071;52.420;20.896;2022-07-30T07:42:18;3.05;;;1.45;;
21188;SDS011;39071;52.420;20.896;2022-07-30T07:44:44;3.90;;;1.20;;
21188;SDS011;39071;52.420;20.896;2022-07-30T07:47:09;2.35;;;1.58;;
21188;SDS011;39071;52.420;20.896;2022-07-30T07:49:35;3.83;;;1.60;;
21188;SDS011;39071;52.420;20.896;2022-07-30T07:52:01;2.22;;;1.27;;
21188;SDS011;39071;52.420;20.896;2022-07-30T07:54:27;3.90;;;1.20;;
21188;SDS011;39071;52.420;20.896;2022-07-30T07:56:52;2.35;;;1.45;;
21188;SDS011;39071;52.420;20.896;2022-07-30T07:59:21;5.00;;;1.50;;
21188;SDS011;39071;52.420;20.896;2022-07-30T08:01:47;3.00;;;1.38;;
21188;SDS011;39071;52.420;20.896;2022-07-30T08:04:14;2.40;;;1.42;;
21188;SDS011;39071;52.420;20.896;2022-07-30T08:06:39;2.10;;;1.35;;
21188;SDS011;39071;52.420;20.896;2022-07-30T08:09:05;5.80;;;1.42;;
21188;SDS011;39071;52.420;20.896;2022-07-30T08:11:31;1.40;;;1.30;;
21188;SDS011;39071;52.420;20.896;2022-07-30T08:13:57;2.13;;;1.30;;
21188;SDS011;39071;52.420;20.896;2022-07-30T08:16:22;4.53;;;1.92;;
21188;SDS011;39071;52.420;20.896;2022-07-30T08:18:48;4.30;;;1.67;;
21188;SDS011;39071;52.420;20.896;2022-07-30T08:21:14;2.90;;;1.30;;
21188;SDS011;39071;52.420;20.896;2022-07-30T08:23:40;3.97;;;1.52;;
21188;SDS011;39071;52.420;20.896;2022-07-30T08:26:06;3.00;;;1.30;;
21188;SDS011;39071;52.420;20.896;2022-07-30T08:28:31;2.92;;;1.83;;
21188;SDS011;39071;52.420;20.896;2022-07-30T08:30:57;4.78;;;1.67;;
21188;SDS011;39071;52.420;20.896;2022-07-30T08:33:23;2.63;;;1.30;;
21188;SDS011;39071;52.420;20.896;2022-07-30T08:35:48;5.45;;;1.60;;
21188;SDS011;39071;52.420;20.896;2022-07-30T08:38:14;1.70;;;1.20;;
21188;SDS011;39071;52.420;20.896;2022-07-30T08:40:40;2.65;;;1.38;;
21188;SDS011;39071;52.420;20.896;2022-07-30T08:43:06;2.85;;;1.58;;
21188;SDS011;39071;52.420;20.896;2022-07-30T08:45:32;1.77;;;1.38;;
21188;SDS011;39071;52.420;20.896;2022-07-30T08:47:59;3.63;;;1.30;;
21188;SDS011;39071;52.420;20.896;2022-07-30T08:50:27;2.97;;;1.48;;
21188;SDS011;39071;52.420;20.896;2022-07-30T08:52:53;5.53;;;1.80;;
21188;SDS011;39071;52.420;20.896;2022-07-30T08:55:23;4.78;;;1.48;;
21188;SDS011;39071;52.420;20.896;2022-07-30T08:57:50;7.72;;;1.80;;
21188;SDS011;39071;52.420;20.896;2022-07-30T09:00:16;2.88;;;1.30;;
21188;SDS011;39071;52.420;20.896;2022-07-30T09:02:44;2.42;;;1.45;;
21188;SDS011;39071;52.420;20.896;2022-07-30T09:05:10;4.32;;;1.60;;
21188;SDS011;39071;52.420;20.896;2022-07-30T09:07:36;5.32;;;1.73;;
21188;SDS011;39071;52.420;20.896;2022-07-30T09:10:03;2.60;;;1.60;;
21188;SDS011;39071;52.420;20.896;2022-07-30T09:12:31;1.98;;;1.30;;
21188;SDS011;39071;52.420;20.896;2022-07-30T09:15:06;4.07;;;2.20;;
21188;SDS011;39071;52.420;20.896;2022-07-30T09:20:31;3.17;;;2.42;;
21188;SDS011;39071;52.420;20.896;2022-07-30T09:22:59;4.57;;;2.00;;
21188;SDS011;39071;52.420;20.896;2022-07-30T09:25:33;5.03;;;1.60;;
21188;SDS011;39071;52.420;20.896;2022-07-30T09:28:02;3.53;;;1.55;;
21188;SDS011;39071;52.420;20.896;2022-07-30T09:30:47;4.65;;;1.95;;
21188;SDS011;39071;52.420;20.896;2022-07-30T09:36:09;3.80;;;1.83;;
21188;SDS011;39071;52.420;20.896;2022-07-30T09:38:52;7.78;;;2.10;;
21188;SDS011;39071;52.420;20.896;2022-07-30T09:41:19;8.73;;;1.65;;
21188;SDS011;39071;52.420;20.896;2022-07-30T09:44:00;3.53;;;1.55;;
21188;SDS011;39071;52.420;20.896;2022-07-30T09:49:12;5.47;;;1.70;;
21188;SDS011;39071;52.420;20.896;2022-07-30T09:51:45;6.13;;;1.80;;
21188;SDS011;39071;52.420;20.896;2022-07-30T09:54:11;2.45;;;1.42;;
21188;SDS011;39071;52.420;20.896;2022-07-30T09:56:37;6.57;;;2.33;;
21188;SDS011;39071;52.420;20.896;2022-07-30T09:59:04;5.88;;;1.45;;
21188;SDS011;39071;52.420;20.896;2022-07-30T10:01:50;10.48;;;1.70;;
21188;SDS011;39071;52.420;20.896;2022-07-30T10:04:24;6.82;;;1.98;;
21188;SDS011;39071;52.420;20.896;2022-07-30T10:06:51;3.22;;;1.42;;
21188;SDS011;39071;52.420;20.896;2022-07-30T10:09:30;2.53;;;1.45;;
21188;SDS011;39071;52.420;20.896;2022-07-30T10:12:04;3.80;;;1.60;;
21188;SDS011;39071;52.420;20.896;2022-07-30T10:14:31;2.88;;;1.70;;
21188;SDS011;39071;52.420;20.896;2022-07-30T10:16:59;4.05;;;1.83;;
21188;SDS011;39071;52.420;20.896;2022-07-30T10:19:25;1.65;;;1.23;;
21188;SDS011;39071;52.420;20.896;2022-07-30T10:21:52;2.40;;;1.80;;
21188;SDS011;39071;52.420;20.896;2022-07-30T10:24:21;1.80;;;1.45;;
21188;SDS011;39071;52.420;20.896;2022-07-30T10:26:48;5.78;;;1.48;;
21188;SDS011;39071;52.420;20.896;2022-07-30T10:29:15;2.85;;;1.65;;
21188;SDS011;39071;52.420;20.896;2022-07-30T10:31:43;2.53;;;1.50;;
21188;SDS011;39071;52.420;20.896;2022-07-30T10:34:10;3.83;;;1.42;;
21188;SDS011;39071;52.420;20.896;2022-07-30T10:36:39;2.50;;;1.50;;
21188;SDS011;39071;52.420;20.896;2022-07-30T10:39:07;4.43;;;1.50;;
21188;SDS011;39071;52.420;20.896;2022-07-30T10:44:50;6.25;;;1.52;;
21188;SDS011;39071;52.420;20.896;2022-07-30T10:47:37;2.83;;;1.50;;
21188;SDS011;39071;52.420;20.896;2022-07-30T10:50:05;5.20;;;1.10;;
21188;SDS011;39071;52.420;20.896;2022-07-30T10:55:22;5.45;;;1.70;;
21188;SDS011;39071;52.420;20.896;2022-07-30T11:00:28;4.88;;;1.23;;
21188;SDS011;39071;52.420;20.896;2022-07-30T11:03:12;2.35;;;1.48;;
21188;SDS011;39071;52.420;20.896;2022-07-30T11:05:44;5.43;;;1.30;;
21188;SDS011;39071;52.420;20.896;2022-07-30T11:10:55;2.63;;;1.52;;
21188;SDS011;39071;52.420;20.896;2022-07-30T11:16:24;5.15;;;1.42;;
21188;SDS011;39071;52.420;20.896;2022-07-30T11:19:14;3.55;;;1.48;;
21188;SDS011;39071;52.420;20.896;2022-07-30T11:21:42;1.65;;;1.50;;
21188;SDS011;39071;52.420;20.896;2022-07-30T11:30:01;4.05;;;1.60;;
21188;SDS011;39071;52.420;20.896;2022-07-30T11:32:29;4.82;;;1.33;;
21188;SDS011;39071;52.420;20.896;2022-07-30T11:35:13;5.95;;;1.75;;
21188;SDS011;39071;52.420;20.896;2022-07-30T11:40:38;3.00;;;1.70;;
21188;SDS011;39071;52.420;20.896;2022-07-30T11:43:18;4.63;;;1.70;;
21188;SDS011;39071;52.420;20.896;2022-07-30T11:45:47;3.63;;;1.52;;
21188;SDS011;39071;52.420;20.896;2022-07-30T11:48:15;6.93;;;1.52;;
21188;SDS011;39071;52.420;20.896;2022-07-30T11:50:42;4.78;;;1.77;;
21188;SDS011;39071;52.420;20.896;2022-07-30T11:53:12;3.85;;;1.58;;
21188;SDS011;39071;52.420;20.896;2022-07-30T11:55:55;3.42;;;1.75;;
21188;SDS011;39071;52.420;20.896;2022-07-30T11:58:26;3.20;;;1.42;;
21188;SDS011;39071;52.420;20.896;2022-07-30T12:01:29;1.90;;;1.70;;
21188;SDS011;39071;52.420;20.896;2022-07-30T12:03:48;2.42;;;1.85;;
21188;SDS011;39071;52.420;20.896;2022-07-30T12:06:14;2.38;;;1.45;;
21188;SDS011;39071;52.420;20.896;2022-07-30T12:08:45;3.00;;;1.90;;
21188;SDS011;39071;52.420;20.896;2022-07-30T12:11:12;4.00;;;2.00;;
21188;SDS011;39071;52.420;20.896;2022-07-30T12:13:39;2.33;;;1.73;;
21188;SDS011;39071;52.420;20.896;2022-07-30T12:16:10;3.67;;;1.80;;
21188;SDS011;39071;52.420;20.896;2022-07-30T12:18:42;3.58;;;1.80;;
21188;SDS011;39071;52.420;20.896;2022-07-30T12:21:09;4.82;;;2.20;;
21188;SDS011;39071;52.420;20.896;2022-07-30T12:23:41;2.85;;;2.05;;
21188;SDS011;39071;52.420;20.896;2022-07-30T12:26:20;2.25;;;1.80;;
21188;SDS011;39071;52.420;20.896;2022-07-30T12:28:50;2.88;;;1.83;;
21188;SDS011;39071;52.420;20.896;2022-07-30T12:31:17;4.38;;;2.08;;
21188;SDS011;39071;52.420;20.896;2022-07-30T12:33:42;3.83;;;2.28;;
21188;SDS011;39071;52.420;20.896;2022-07-30T12:36:08;3.65;;;1.80;;
21188;SDS011;39071;52.420;20.896;2022-07-30T12:38:47;5.68;;;2.45;;
21188;SDS011;39071;52.420;20.896;2022-07-30T12:41:14;3.88;;;2.78;;
21188;SDS011;39071;52.420;20.896;2022-07-30T12:43:47;4.80;;;1.65;;
21188;SDS011;39071;52.420;20.896;2022-07-30T12:46:18;7.05;;;2.80;;
21188;SDS011;39071;52.420;20.896;2022-07-30T12:48:52;5.47;;;2.50;;
21188;SDS011;39071;52.420;20.896;2022-07-30T12:51:18;5.53;;;2.30;;
21188;SDS011;39071;52.420;20.896;2022-07-30T12:53:45;5.97;;;2.50;;
21188;SDS011;39071;52.420;20.896;2022-07-30T12:56:12;9.15;;;2.90;;
21188;SDS011;39071;52.420;20.896;2022-07-30T12:58:42;2.92;;;2.35;;
21188;SDS011;39071;52.420;20.896;2022-07-30T13:01:10;4.32;;;2.33;;
21188;SDS011;39071;52.420;20.896;2022-07-30T13:03:36;5.90;;;3.08;;
21188;SDS011;39071;52.420;20.896;2022-07-30T13:08:59;8.23;;;3.53;;
21188;SDS011;39071;52.420;20.896;2022-07-30T13:11:26;7.72;;;2.85;;
21188;SDS011;39071;52.420;20.896;2022-07-30T13:14:01;3.47;;;2.30;;
21188;SDS011;39071;52.420;20.896;2022-07-30T13:16:29;6.22;;;2.90;;
21188;SDS011;39071;52.420;20.896;2022-07-30T13:18:56;3.72;;;2.25;;
21188;SDS011;39071;52.420;20.896;2022-07-30T13:21:22;14.57;;;2.58;;
21188;SDS011;39071;52.420;20.896;2022-07-30T13:23:48;6.05;;;2.60;;
21188;SDS011;39071;52.420;20.896;2022-07-30T13:26:14;6.05;;;2.30;;
21188;SDS011;39071;52.420;20.896;2022-07-30T13:28:40;3.35;;;2.00;;
21188;SDS011;39071;52.420;20.896;2022-07-30T13:31:06;3.65;;;1.88;;
21188;SDS011;39071;52.420;20.896;2022-07-30T13:33:33;11.00;;;3.00;;
21188;SDS011;39071;52.420;20.896;2022-07-30T13:35:59;6.05;;;2.40;;
21188;SDS011;39071;52.420;20.896;2022-07-30T13:38:25;8.32;;;2.85;;
21188;SDS011;39071;52.420;20.896;2022-07-30T13:40:52;3.17;;;1.85;;
21188;SDS011;39071;52.420;20.896;2022-07-30T13:43:18;10.05;;;2.78;;
21188;SDS011;39071;52.420;20.896;2022-07-30T13:45:44;7.72;;;2.55;;
21188;SDS011;39071;52.420;20.896;2022-07-30T13:48:11;4.75;;;2.70;;
21188;SDS011;39071;52.420;20.896;2022-07-30T13:50:37;2.35;;;1.90;;
21188;SDS011;39071;52.420;20.896;2022-07-30T13:53:03;8.07;;;2.97;;
21188;SDS011;39071;52.420;20.896;2022-07-30T13:55:29;6.63;;;2.28;;
21188;SDS011;39071;52.420;20.896;2022-07-30T13:57:55;7.47;;;2.40;;
21188;SDS011;39071;52.420;20.896;2022-07-30T14:00:21;12.93;;;3.38;;
21188;SDS011;39071;52.420;20.896;2022-07-30T14:02:47;5.43;;;2.47;;
21188;SDS011;39071;52.420;20.896;2022-07-30T14:05:13;4.80;;;2.85;;
21188;SDS011;39071;52.420;20.896;2022-07-30T14:07:39;4.70;;;2.20;;
21188;SDS011;39071;52.420;20.896;2022-07-30T14:10:05;11.45;;;2.95;;
21188;SDS011;39071;52.420;20.896;2022-07-30T14:12:32;3.78;;;2.28;;
21188;SDS011;39071;52.420;20.896;2022-07-30T14:14:58;4.63;;;2.72;;
21188;SDS011;39071;52.420;20.896;2022-07-30T14:17:24;8.43;;;3.17;;
21188;SDS011;39071;52.420;20.896;2022-07-30T14:19:50;4.18;;;2.70;;
21188;SDS011;39071;52.420;20.896;2022-07-30T14:22:18;8.45;;;2.85;;
21188;SDS011;39071;52.420;20.896;2022-07-30T14:24:45;4.60;;;2.65;;
21188;SDS011;39071;52.420;20.896;2022-07-30T14:27:11;3.10;;;2.20;;
21188;SDS011;39071;52.420;20.896;2022-07-30T14:29:36;5.35;;;2.70;;
21188;SDS011;39071;52.420;20.896;2022-07-30T14:32:02;4.57;;;2.05;;
21188;SDS011;39071;52.420;20.896;2022-07-30T14:34:28;3.83;;;2.67;;
21188;SDS011;39071;52.420;20.896;2022-07-30T14:36:54;4.93;;;2.78;;
21188;SDS011;39071;52.420;20.896;2022-07-30T14:39:20;4.13;;;2.25;;
21188;SDS011;39071;52.420;20.896;2022-07-30T14:41:45;5.72;;;2.08;;
21188;SDS011;39071;52.420;20.896;2022-07-30T14:44:11;4.68;;;2.47;;
21188;SDS011;39071;52.420;20.896;2022-07-30T14:46:38;6.07;;;2.40;;
21188;SDS011;39071;52.420;20.896;2022-07-30T14:49:04;2.78;;;2.38;;
21188;SDS011;39071;52.420;20.896;2022-07-30T14:51:34;4.20;;;2.50;;
21188;SDS011;39071;52.420;20.896;2022-07-30T14:54:01;5.93;;;2.53;;
21188;SDS011;39071;52.420;20.896;2022-07-30T14:56:27;4.78;;;2.60;;
21188;SDS011;39071;52.420;20.896;2022-07-30T14:58:52;18.45;;;3.40;;
21188;SDS011;39071;52.420;20.896;2022-07-30T15:01:19;5.93;;;3.13;;
21188;SDS011;39071;52.420;20.896;2022-07-30T15:03:44;3.90;;;2.47;;
21188;SDS011;39071;52.420;20.896;2022-07-30T15:06:11;4.15;;;2.80;;
21188;SDS011;39071;52.420;20.896;2022-07-30T15:08:39;9.90;;;3.30;;
21188;SDS011;39071;52.420;20.896;2022-07-30T15:11:05;5.18;;;2.95;;
21188;SDS011;39071;52.420;20.896;2022-07-30T15:13:30;6.45;;;2.65;;
21188;SDS011;39071;52.420;20.896;2022-07-30T15:15:56;5.07;;;2.70;;
21188;SDS011;39071;52.420;20.896;2022-07-30T15:18:22;5.28;;;2.65;;